createdAt,value
2019-01-16T00:00:20.897Z,4.60
2019-01-16T00:02:57.399Z,4.60
2019-01-16T00:05:54.788Z,4.60
2019-01-16T00:08:55.031Z,4.60
2019-01-16T00:11:31.977Z,4.60
2019-01-16T00:14:20.179Z,4.60
2019-01-16T00:17:11.373Z,4.60
2019-01-16T00:19:51.683Z,4.60
2019-01-16T00:22:45.723Z,4.60
2019-01-16T00:25:32.789Z,4.60
2019-01-16T00:28:27.039Z,4.60
2019-01-16T00:31:13.715Z,4.60
2019-01-16T00:34:00.287Z,4.70
2019-01-16T00:36:56.001Z,4.70
2019-01-16T00:39:56.696Z,4.70
2019-01-16T00:42:33.206Z,4.70
2019-01-16T00:45:24.435Z,4.70
2019-01-16T00:48:12.603Z,4.70
2019-01-16T00:50:48.871Z,4.70
2019-01-16T00:53:27.259Z,4.70
2019-01-16T00:56:11.495Z,4.80
2019-01-16T00:59:12.020Z,4.70
2019-01-16T01:02:12.587Z,4.70
2019-01-16T01:04:59.708Z,4.80
2019-01-16T01:07:46.672Z,4.70
2019-01-16T01:10:33.149Z,4.70
2019-01-16T01:13:34.381Z,4.70
2019-01-16T01:16:21.103Z,4.70
2019-01-16T01:19:07.767Z,4.70
2019-01-16T01:21:54.893Z,4.70
2019-01-16T01:24:47.932Z,4.70
2019-01-16T01:27:45.454Z,4.70
2019-01-16T01:30:32.700Z,4.60
2019-01-16T01:33:33.090Z,4.60
2019-01-16T01:36:21.284Z,4.60
2019-01-16T01:39:18.285Z,4.50
2019-01-16T01:42:09.274Z,4.50
2019-01-16T01:45:12.490Z,4.50
2019-01-16T01:47:48.126Z,4.50
2019-01-16T01:50:36.330Z,4.50
2019-01-16T01:53:24.572Z,4.50
2019-01-16T01:56:15.540Z,4.50
2019-01-16T01:59:18.792Z,4.50
2019-01-16T02:01:57.311Z,4.50
2019-01-16T02:04:54.752Z,4.50
2019-01-16T02:07:42.925Z,4.50
2019-01-16T02:10:37.427Z,4.50
2019-01-16T02:13:26.358Z,4.40
2019-01-16T02:16:17.556Z,4.40
2019-01-16T02:18:58.595Z,4.40
2019-01-16T02:21:49.586Z,4.40
2019-01-16T02:24:34.122Z,4.40
2019-01-16T02:27:34.513Z,4.40
2019-01-16T02:30:17.243Z,4.40
2019-01-16T02:33:01.760Z,4.40
2019-01-16T02:35:50.019Z,4.40
2019-01-16T02:38:35.441Z,4.40
2019-01-16T02:41:19.918Z,4.40
2019-01-16T02:44:06.960Z,4.40
2019-01-16T02:46:58.137Z,4.30
2019-01-16T02:49:49.096Z,4.30
2019-01-16T02:52:42.043Z,4.30
2019-01-16T02:55:23.896Z,4.40
2019-01-16T02:58:14.827Z,4.30
2019-01-16T03:01:11.996Z,4.30
2019-01-16T03:03:59.144Z,4.30
2019-01-16T03:06:35.759Z,4.30
2019-01-16T03:09:30.114Z,4.30
2019-01-16T03:12:30.386Z,4.30
2019-01-16T03:15:27.668Z,4.30
2019-01-16T03:18:11.557Z,4.30
2019-01-16T03:21:05.550Z,4.30
2019-01-16T03:23:52.530Z,4.20
2019-01-16T03:26:43.771Z,4.20
2019-01-16T03:29:31.955Z,4.20
2019-01-16T03:32:26.344Z,4.10
2019-01-16T03:35:17.552Z,4.10
2019-01-16T03:38:00.723Z,4.10
2019-01-16T03:40:47.556Z,4.10
2019-01-16T03:43:41.901Z,4.10
2019-01-16T03:46:35.906Z,4.10
2019-01-16T03:49:18.607Z,4.10
2019-01-16T03:52:18.888Z,4.10
2019-01-16T03:55:17.455Z,4.10
2019-01-16T03:58:07.224Z,4.10
2019-01-16T04:01:10.515Z,4.00
2019-01-16T04:03:57.142Z,4.00
2019-01-16T04:06:44.035Z,4.00
2019-01-16T04:09:50.591Z,4.00
2019-01-16T04:12:44.821Z,4.00
2019-01-16T04:15:35.831Z,4.00
2019-01-16T04:18:22.849Z,4.00
2019-01-16T04:21:29.389Z,4.00
2019-01-16T04:24:16.404Z,4.00
2019-01-16T04:27:20.059Z,4.00
2019-01-16T04:30:02.438Z,3.90
2019-01-16T04:32:53.383Z,4.00
2019-01-16T04:35:39.823Z,4.00
2019-01-16T04:38:26.821Z,4.00
2019-01-16T04:41:14.975Z,4.00
2019-01-16T04:43:49.002Z,4.00
2019-01-16T04:46:43.317Z,4.00
2019-01-16T04:49:30.790Z,4.00
2019-01-16T04:52:17.773Z,4.00
2019-01-16T04:55:15.259Z,4.00
2019-01-16T04:58:03.819Z,4.00
2019-01-16T05:00:48.440Z,4.00
2019-01-16T05:03:35.149Z,4.00
2019-01-16T05:06:24.810Z,4.00
2019-01-16T05:09:06.994Z,4.00
2019-01-16T05:11:54.050Z,4.00
2019-01-16T05:14:54.144Z,3.90
2019-01-16T05:17:54.599Z,3.90
2019-01-16T05:20:35.515Z,3.90
2019-01-16T05:23:17.019Z,3.80
2019-01-16T05:26:23.482Z,3.80
2019-01-16T05:29:14.687Z,3.80
2019-01-16T05:32:06.739Z,3.80
2019-01-16T05:34:59.943Z,3.70
2019-01-16T05:37:48.118Z,3.80
2019-01-16T05:40:35.200Z,3.80
2019-01-16T05:43:22.267Z,3.80
2019-01-16T05:46:12.365Z,3.70
2019-01-16T05:49:00.587Z,3.80
2019-01-16T05:51:46.835Z,3.70
2019-01-16T05:54:34.446Z,3.80
2019-01-16T05:57:31.901Z,3.70
2019-01-16T06:00:17.188Z,3.70
2019-01-16T06:03:04.122Z,3.80
2019-01-16T06:06:04.524Z,3.80
2019-01-16T06:08:51.478Z,3.80
2019-01-16T06:11:39.645Z,3.80
2019-01-16T06:14:30.691Z,3.70
2019-01-16T06:17:19.858Z,3.60
2019-01-16T06:20:01.569Z,3.60
2019-01-16T06:22:46.487Z,3.60
2019-01-16T06:25:34.755Z,3.60
2019-01-16T06:28:32.208Z,3.60
2019-01-16T06:31:20.449Z,3.60
2019-01-16T06:34:07.392Z,3.60
2019-01-16T06:37:01.721Z,3.50
2019-01-16T06:39:41.731Z,3.50
2019-01-16T06:42:38.806Z,3.40
2019-01-16T06:45:26.904Z,3.40
2019-01-16T06:48:13.849Z,3.40
2019-01-16T06:50:51.634Z,3.30
2019-01-16T06:53:38.836Z,3.30
2019-01-16T06:56:28.425Z,3.40
2019-01-16T06:59:19.288Z,3.30
2019-01-16T07:02:10.510Z,3.30
2019-01-16T07:05:16.736Z,3.30
2019-01-16T07:08:03.691Z,3.50
2019-01-16T07:10:51.696Z,3.50
2019-01-16T07:13:39.865Z,3.40
2019-01-16T07:16:30.616Z,3.40
2019-01-16T07:19:12.726Z,3.30
2019-01-16T07:21:59.501Z,3.30
2019-01-16T07:24:55.341Z,3.20
2019-01-16T07:27:41.081Z,3.20
2019-01-16T07:30:31.672Z,3.20
2019-01-16T07:33:32.098Z,3.20
2019-01-16T07:36:18.926Z,3.10
2019-01-16T07:39:04.772Z,3.10
2019-01-16T07:41:56.070Z,3.00
2019-01-16T07:44:42.918Z,3.00
2019-01-16T07:47:29.866Z,3.00
2019-01-16T07:50:21.102Z,3.00
2019-01-16T07:53:15.068Z,3.00
2019-01-16T07:55:55.243Z,3.00
2019-01-16T07:58:46.163Z,2.90
2019-01-16T08:01:33.158Z,2.90
2019-01-16T08:04:27.376Z,2.90
2019-01-16T08:07:08.564Z,2.90
2019-01-16T08:10:15.000Z,3.00
2019-01-16T08:13:12.090Z,3.00
2019-01-16T08:16:05.995Z,3.00
2019-01-16T08:18:52.791Z,3.00
2019-01-16T08:21:47.232Z,3.00
2019-01-16T08:24:27.187Z,3.00
2019-01-16T08:27:15.341Z,3.10
2019-01-16T08:29:58.762Z,3.10
2019-01-16T08:32:45.712Z,3.20
2019-01-16T08:35:37.392Z,3.20
2019-01-16T08:38:24.214Z,3.30
2019-01-16T08:41:15.089Z,3.30
2019-01-16T08:44:13.420Z,3.30
2019-01-16T08:46:54.760Z,3.40
2019-01-16T08:49:43.024Z,3.40
2019-01-16T08:52:34.284Z,3.40
2019-01-16T08:55:20.977Z,3.40
2019-01-16T08:58:27.653Z,3.40
2019-01-16T09:01:32.526Z,3.40
2019-01-16T09:04:33.061Z,3.50
2019-01-16T09:07:19.855Z,3.50
2019-01-16T09:10:08.027Z,3.50
2019-01-16T09:12:53.639Z,3.50
2019-01-16T09:15:41.870Z,3.50
2019-01-16T09:18:27.253Z,3.60
2019-01-16T09:21:11.991Z,3.50
2019-01-16T09:24:02.916Z,3.50
2019-01-16T09:26:49.731Z,3.50
2019-01-16T09:29:32.531Z,3.40
2019-01-16T09:32:26.532Z,3.40
2019-01-16T09:35:23.792Z,3.40
2019-01-16T09:38:11.945Z,3.40
2019-01-16T09:40:51.496Z,3.50
2019-01-16T09:43:50.876Z,3.50
2019-01-16T09:46:48.210Z,3.50
2019-01-16T09:49:36.450Z,3.60
2019-01-16T09:52:14.058Z,3.70
2019-01-16T09:55:02.126Z,3.70
2019-01-16T09:57:51.618Z,3.80
2019-01-16T10:00:49.227Z,3.90
2019-01-16T10:03:37.415Z,3.90
2019-01-16T10:06:37.714Z,4.00
2019-01-16T10:09:43.125Z,4.10
2019-01-16T10:12:43.267Z,4.20
2019-01-16T10:15:30.083Z,4.30
2019-01-16T10:18:16.820Z,4.30
2019-01-16T10:21:03.827Z,4.30
2019-01-16T10:23:50.535Z,4.30
2019-01-16T10:26:44.722Z,4.30
2019-01-16T10:29:40.671Z,4.30
2019-01-16T10:32:27.845Z,4.30
2019-01-16T10:35:15.003Z,4.30
2019-01-16T10:38:03.181Z,4.40
2019-01-16T10:41:03.466Z,4.50
2019-01-16T10:43:57.947Z,4.70
2019-01-16T10:46:55.057Z,4.90
2019-01-16T10:49:49.133Z,5.00
2019-01-16T10:52:40.160Z,5.00
2019-01-16T10:55:18.443Z,5.00
2019-01-16T10:58:05.192Z,5.10
2019-01-16T11:00:52.230Z,5.10
2019-01-16T11:03:43.626Z,5.20
2019-01-16T11:06:30.854Z,5.20
2019-01-16T11:09:19.052Z,5.20
2019-01-16T11:12:20.001Z,5.20
2019-01-16T11:15:06.764Z,5.20
2019-01-16T11:17:53.802Z,5.20
2019-01-16T11:20:42.023Z,5.30
2019-01-16T11:23:28.802Z,5.40
2019-01-16T11:26:24.745Z,5.40
2019-01-16T11:29:27.920Z,5.50
2019-01-16T11:32:13.333Z,5.60
2019-01-16T11:35:07.305Z,5.70
2019-01-16T11:38:10.576Z,5.80
2019-01-16T11:41:10.633Z,5.80
2019-01-16T11:44:07.847Z,5.80
2019-01-16T11:46:47.724Z,5.70
2019-01-16T11:49:50.983Z,5.70
2019-01-16T11:52:36.498Z,5.70
2019-01-16T11:55:32.000Z,5.80
2019-01-16T11:58:19.267Z,5.80
2019-01-16T12:00:55.988Z,5.90
2019-01-16T12:03:42.958Z,6.00
2019-01-16T12:06:39.066Z,5.90
2019-01-16T12:09:31.939Z,6.10
2019-01-16T12:12:18.972Z,6.10
2019-01-16T12:15:05.740Z,6.30
2019-01-16T12:17:57.004Z,6.20
2019-01-16T12:20:48.060Z,6.20
2019-01-16T12:23:29.564Z,6.20
2019-01-16T12:26:10.373Z,6.20
2019-01-16T12:29:01.592Z,6.10
2019-01-16T12:31:38.747Z,6.10
2019-01-16T12:34:21.856Z,6.20
2019-01-16T12:37:08.856Z,6.20
2019-01-16T12:40:03.260Z,6.40
2019-01-16T12:42:54.285Z,6.40
2019-01-16T12:45:40.402Z,6.40
2019-01-16T12:48:27.353Z,6.50
2019-01-16T12:51:14.366Z,6.40
2019-01-16T12:53:55.078Z,6.40
2019-01-16T12:56:55.406Z,6.40
2019-01-16T12:59:35.838Z,6.40
2019-01-16T13:02:14.892Z,6.40
2019-01-16T13:04:56.418Z,6.30
2019-01-16T13:07:44.581Z,6.10
2019-01-16T13:10:35.517Z,6.20
2019-01-16T13:13:23.718Z,6.20
2019-01-16T13:16:20.926Z,6.10
2019-01-16T13:19:21.037Z,6.10
2019-01-16T13:22:15.424Z,6.00
2019-01-16T13:25:02.624Z,6.10
2019-01-16T13:27:53.545Z,6.10
2019-01-16T13:30:33.829Z,6.10
2019-01-16T13:33:40.488Z,6.10
2019-01-16T13:36:37.738Z,5.90
2019-01-16T13:39:30.713Z,5.80
2019-01-16T13:42:34.109Z,5.90
2019-01-16T13:45:28.258Z,5.90
2019-01-16T13:48:12.043Z,5.90
2019-01-16T13:51:06.001Z,5.90
2019-01-16T13:54:12.284Z,5.90
2019-01-16T13:56:54.686Z,6.00
2019-01-16T13:59:42.909Z,6.00
2019-01-16T14:02:30.055Z,6.00
2019-01-16T14:05:18.253Z,6.00
2019-01-16T14:08:15.513Z,6.00
2019-01-16T14:11:06.474Z,6.00
2019-01-16T14:14:00.498Z,6.10
2019-01-16T14:16:35.550Z,6.10
2019-01-16T14:19:27.034Z,6.20
2019-01-16T14:22:30.326Z,6.10
2019-01-16T14:25:36.705Z,6.00
2019-01-16T14:28:27.138Z,5.90
2019-01-16T14:31:21.410Z,5.80
2019-01-16T14:34:12.690Z,5.90
2019-01-16T14:37:06.936Z,5.80
2019-01-16T14:40:05.601Z,5.90
2019-01-16T14:42:54.791Z,5.90
2019-01-16T14:45:41.748Z,5.90
2019-01-16T14:48:33.251Z,5.80
2019-01-16T14:51:20.310Z,5.80
2019-01-16T14:54:08.516Z,5.80
2019-01-16T14:57:02.962Z,5.80
2019-01-16T14:59:41.874Z,5.70
2019-01-16T15:02:36.140Z,5.80
2019-01-16T15:05:23.415Z,5.80
2019-01-16T15:08:12.584Z,5.80
2019-01-16T15:11:10.331Z,5.70
2019-01-16T15:14:07.358Z,5.70
2019-01-16T15:16:54.213Z,5.70
2019-01-16T15:19:48.468Z,5.80
2019-01-16T15:22:28.631Z,5.70
2019-01-16T15:25:19.644Z,5.70
2019-01-16T15:28:08.163Z,5.70
2019-01-16T15:31:06.051Z,5.60
2019-01-16T15:33:57.245Z,5.50
2019-01-16T15:36:35.616Z,5.50
2019-01-16T15:39:40.532Z,5.40
2019-01-16T15:42:38.278Z,5.30
2019-01-16T15:45:20.907Z,5.20
2019-01-16T15:47:59.986Z,5.10
2019-01-16T15:50:51.174Z,5.10
2019-01-16T15:53:42.177Z,5.10
2019-01-16T15:56:29.143Z,5.10
2019-01-16T15:59:23.424Z,5.00
2019-01-16T16:02:23.819Z,4.90
2019-01-16T16:05:10.843Z,4.80
2019-01-16T16:08:11.282Z,4.80
2019-01-16T16:11:05.358Z,4.70
2019-01-16T16:13:58.906Z,4.70
2019-01-16T16:16:59.184Z,4.70
2019-01-16T16:19:56.602Z,4.60
2019-01-16T16:22:34.423Z,4.50
2019-01-16T16:25:11.362Z,4.50
2019-01-16T16:27:59.600Z,4.40
2019-01-16T16:30:46.330Z,4.40
2019-01-16T16:33:31.294Z,4.40
2019-01-16T16:36:31.475Z,4.40
2019-01-16T16:39:35.014Z,4.30
2019-01-16T16:42:16.892Z,4.40
2019-01-16T16:45:03.933Z,4.30
2019-01-16T16:47:50.985Z,4.30
2019-01-16T16:50:32.622Z,4.30
2019-01-16T16:53:27.062Z,4.30
2019-01-16T16:56:33.609Z,4.30
2019-01-16T16:59:21.183Z,4.30
2019-01-16T17:02:27.416Z,4.30
2019-01-16T17:05:21.595Z,4.30
2019-01-16T17:07:59.148Z,4.30
2019-01-16T17:10:39.694Z,4.30
2019-01-16T17:13:39.786Z,4.30
2019-01-16T17:16:21.733Z,4.30
2019-01-16T17:19:21.979Z,4.40
2019-01-16T17:22:25.110Z,4.40
2019-01-16T17:25:21.906Z,4.40
2019-01-16T17:28:22.359Z,4.40
2019-01-16T17:31:01.712Z,4.40
2019-01-16T17:34:08.269Z,4.40
2019-01-16T17:37:00.260Z,4.40
2019-01-16T17:39:36.740Z,4.30
2019-01-16T17:42:40.247Z,4.30
2019-01-16T17:45:43.868Z,4.30
2019-01-16T17:48:27.871Z,4.40
2019-01-16T17:51:18.806Z,4.40
2019-01-16T17:54:05.657Z,4.30
2019-01-16T17:56:48.220Z,4.30
2019-01-16T17:59:36.399Z,4.40
2019-01-16T18:02:19.261Z,4.30
2019-01-16T18:04:59.292Z,4.30
2019-01-16T18:07:53.438Z,4.30
2019-01-16T18:10:44.510Z,4.30
2019-01-16T18:13:34.912Z,4.40
2019-01-16T18:16:41.979Z,4.40
2019-01-16T18:19:24.813Z,4.40
2019-01-16T18:22:05.802Z,4.40
2019-01-16T18:24:56.501Z,4.40
2019-01-16T18:27:43.312Z,4.30
2019-01-16T18:30:33.922Z,4.30
2019-01-16T18:33:34.423Z,4.40
2019-01-16T18:36:28.093Z,4.40
2019-01-16T18:39:19.079Z,4.40
2019-01-16T18:42:07.273Z,4.40
2019-01-16T18:44:54.167Z,4.40
2019-01-16T18:47:39.283Z,4.40
2019-01-16T18:50:31.085Z,4.30
2019-01-16T18:53:19.271Z,4.30
2019-01-16T18:56:00.211Z,4.30
2019-01-16T18:58:38.293Z,4.30
2019-01-16T19:01:35.821Z,4.30
2019-01-16T19:04:31.409Z,4.20
2019-01-16T19:07:17.704Z,4.20
2019-01-16T19:10:04.826Z,4.20
2019-01-16T19:12:51.839Z,4.20
2019-01-16T19:15:31.107Z,4.20
2019-01-16T19:18:17.924Z,4.20
2019-01-16T19:21:11.967Z,4.20
2019-01-16T19:23:55.606Z,4.10
2019-01-16T19:26:42.507Z,4.20
2019-01-16T19:29:39.440Z,4.10
2019-01-16T19:32:26.556Z,4.10
2019-01-16T19:35:15.482Z,4.10
2019-01-16T19:38:02.449Z,4.00
2019-01-16T19:40:49.439Z,4.00
2019-01-16T19:43:36.736Z,4.00
2019-01-16T19:46:55.511Z,4.00
2019-01-16T19:49:49.619Z,4.00
2019-01-16T19:52:40.688Z,4.10
2019-01-16T19:55:37.973Z,4.20
2019-01-16T19:58:20.384Z,4.10
2019-01-16T20:01:14.716Z,4.10
2019-01-16T20:03:53.616Z,4.10
2019-01-16T20:06:44.911Z,4.00
2019-01-16T20:09:31.765Z,4.00
2019-01-16T20:12:13.831Z,4.00
2019-01-16T20:14:49.899Z,4.00
2019-01-16T20:17:44.089Z,4.00
2019-01-16T20:20:31.836Z,4.00
2019-01-16T20:23:14.727Z,3.90
2019-01-16T20:26:05.960Z,3.90
2019-01-16T20:28:56.938Z,3.90
2019-01-16T20:31:40.902Z,3.90
2019-01-16T20:34:29.572Z,3.90
2019-01-16T20:37:09.650Z,4.00
2019-01-16T20:39:56.674Z,4.00
2019-01-16T20:42:43.731Z,4.00
2019-01-16T20:45:43.940Z,4.10
2019-01-16T20:48:34.190Z,4.10
2019-01-16T20:51:37.719Z,4.10
2019-01-16T20:54:25.079Z,4.10
2019-01-16T20:57:01.122Z,4.10
2019-01-16T20:59:53.312Z,4.10
2019-01-16T21:02:44.502Z,4.10
2019-01-16T21:05:38.504Z,4.10
2019-01-16T21:08:20.983Z,4.10
2019-01-16T21:11:18.142Z,4.10
2019-01-16T21:14:07.382Z,4.10
2019-01-16T21:17:13.792Z,4.10
2019-01-16T21:20:00.867Z,4.10
2019-01-16T21:22:44.153Z,4.10
2019-01-16T21:25:22.120Z,4.00
2019-01-16T21:28:09.120Z,4.00
2019-01-16T21:30:59.753Z,4.00
2019-01-16T21:33:46.922Z,3.90
2019-01-16T21:36:33.760Z,3.90
2019-01-16T21:39:20.715Z,3.90
2019-01-16T21:42:10.884Z,3.80
2019-01-16T21:44:57.633Z,3.80
2019-01-16T21:47:41.396Z,3.80
2019-01-16T21:50:32.754Z,3.80
2019-01-16T21:53:30.502Z,3.90
2019-01-16T21:56:15.725Z,3.90
2019-01-16T21:59:13.101Z,3.80
2019-01-16T22:02:07.109Z,3.80
2019-01-16T22:05:01.068Z,3.80
2019-01-16T22:07:47.947Z,3.80
2019-01-16T22:10:35.334Z,3.80
2019-01-16T22:13:13.475Z,3.90
2019-01-16T22:16:04.545Z,3.80
2019-01-16T22:18:58.755Z,3.90
2019-01-16T22:21:55.779Z,3.90
2019-01-16T22:24:43.964Z,3.90
2019-01-16T22:27:30.673Z,3.90
2019-01-16T22:30:13.160Z,4.00
2019-01-16T22:33:07.404Z,4.00
2019-01-16T22:35:52.855Z,4.00
2019-01-16T22:38:31.750Z,4.10
2019-01-16T22:41:35.290Z,4.10
2019-01-16T22:44:26.566Z,4.10
2019-01-16T22:47:13.875Z,4.10
2019-01-16T22:50:05.083Z,4.10
2019-01-16T22:52:51.833Z,4.10
2019-01-16T22:55:55.283Z,4.10
2019-01-16T22:58:55.525Z,4.10
2019-01-16T23:01:42.305Z,4.20
2019-01-16T23:04:38.693Z,4.20
2019-01-16T23:07:29.621Z,4.30
2019-01-16T23:10:20.833Z,4.30
2019-01-16T23:13:11.774Z,4.30
2019-01-16T23:16:02.739Z,4.30
2019-01-16T23:18:50.891Z,4.30
2019-01-16T23:21:33.898Z,4.30
2019-01-16T23:24:22.082Z,4.40
2019-01-16T23:27:04.356Z,4.40
2019-01-16T23:29:50.417Z,4.40
2019-01-16T23:32:35.406Z,4.40
2019-01-16T23:35:22.814Z,4.40
2019-01-16T23:38:09.810Z,4.40
2019-01-16T23:41:10.042Z,4.50
2019-01-16T23:44:16.530Z,4.50
2019-01-16T23:47:01.082Z,4.50
2019-01-16T23:49:47.590Z,4.60
2019-01-16T23:52:38.612Z,4.60
2019-01-16T23:55:27.052Z,4.60
2019-01-16T23:58:15.240Z,4.60
